createdAt,value
2018-12-01T00:00:41.724Z,990.99
2018-12-01T00:01:41.717Z,990.98
2018-12-01T00:02:41.706Z,991
2018-12-01T00:03:41.715Z,991
2018-12-01T00:04:41.692Z,990.97
2018-12-01T00:05:41.686Z,990.99
2018-12-01T00:06:41.680Z,990.96
2018-12-01T00:07:41.685Z,991
2018-12-01T00:08:41.675Z,991.04
2018-12-01T00:09:41.659Z,991.04
2018-12-01T00:10:41.668Z,991.07
2018-12-01T00:11:41.651Z,991.09
2018-12-01T00:12:41.644Z,991.08
2018-12-01T00:13:41.635Z,991.06
2018-12-01T00:14:41.632Z,991.11
2018-12-01T00:15:41.621Z,991.07
2018-12-01T00:16:41.617Z,991.08
2018-12-01T00:17:41.609Z,991.05
2018-12-01T00:18:41.637Z,991.08
2018-12-01T00:19:41.599Z,991.1
2018-12-01T00:20:41.592Z,991.09
2018-12-01T00:21:41.583Z,991.03
2018-12-01T00:22:41.576Z,991.01
2018-12-01T00:23:41.570Z,991.01
2018-12-01T00:24:41.564Z,991.04
2018-12-01T00:25:41.559Z,991.02
2018-12-01T00:26:41.554Z,990.98
2018-12-01T00:27:41.546Z,990.99
2018-12-01T00:28:41.544Z,990.98
2018-12-01T00:29:41.534Z,991
2018-12-01T00:30:41.526Z,991.02
2018-12-01T00:31:41.522Z,991.01
2018-12-01T00:32:41.513Z,991.05
2018-12-01T00:33:41.505Z,991
2018-12-01T00:34:41.502Z,990.99
2018-12-01T00:35:41.493Z,991.02
2018-12-01T00:36:41.486Z,990.98
2018-12-01T00:37:41.501Z,991.02
2018-12-01T00:38:41.478Z,991.04
2018-12-01T00:39:41.470Z,991.02
2018-12-01T00:40:41.457Z,991.01
2018-12-01T00:41:41.456Z,991
2018-12-01T00:42:41.445Z,991.01
2018-12-01T00:43:41.442Z,990.97
2018-12-01T00:44:41.429Z,990.89
2018-12-01T00:45:41.431Z,990.9
2018-12-01T00:46:41.425Z,990.89
2018-12-01T00:47:41.408Z,990.95
2018-12-01T00:48:41.399Z,990.95
2018-12-01T00:49:41.397Z,990.92
2018-12-01T00:50:41.388Z,990.96
2018-12-01T00:51:41.380Z,991
2018-12-01T00:52:41.370Z,991.04
2018-12-01T00:53:41.368Z,991.03
2018-12-01T00:54:41.359Z,991.05
2018-12-01T00:55:41.349Z,991.06
2018-12-01T00:56:41.344Z,991.08
2018-12-01T00:57:41.373Z,991.08
2018-12-01T00:58:41.329Z,991.1
2018-12-01T00:59:41.328Z,991.1
2018-12-01T01:00:41.312Z,991.09
2018-12-01T01:01:41.309Z,991.18
2018-12-01T01:02:41.301Z,991.17
2018-12-01T01:03:41.291Z,991.19
2018-12-01T01:04:41.286Z,991.23
2018-12-01T01:05:41.281Z,991.24
2018-12-01T01:06:41.273Z,991.29
2018-12-01T01:07:41.261Z,991.31
2018-12-01T01:08:41.259Z,991.3
2018-12-01T01:09:41.257Z,991.31
2018-12-01T01:10:41.273Z,991.33
2018-12-01T01:11:41.231Z,991.34
2018-12-01T01:12:41.224Z,991.35
2018-12-01T01:13:41.218Z,991.38
2018-12-01T01:14:41.209Z,991.35
2018-12-01T01:15:41.203Z,991.36
2018-12-01T01:16:41.204Z,991.39
2018-12-01T01:17:41.186Z,991.37
2018-12-01T01:18:41.179Z,991.39
2018-12-01T01:19:41.204Z,991.36
2018-12-01T01:20:41.181Z,991.39
2018-12-01T01:21:41.157Z,991.34
2018-12-01T01:22:41.153Z,991.34
2018-12-01T01:23:41.144Z,991.32
2018-12-01T01:24:41.134Z,991.31
2018-12-01T01:25:41.129Z,991.29
2018-12-01T01:26:41.122Z,991.31
2018-12-01T01:27:41.112Z,991.31
2018-12-01T01:28:41.107Z,991.34
2018-12-01T01:29:41.100Z,991.34
2018-12-01T01:30:41.092Z,991.35
2018-12-01T01:31:41.092Z,991.34
2018-12-01T01:32:41.081Z,991.35
2018-12-01T01:33:41.073Z,991.34
2018-12-01T01:34:41.064Z,991.33
2018-12-01T01:35:41.058Z,991.33
2018-12-01T01:36:41.051Z,991.35
2018-12-01T01:37:41.046Z,991.37
2018-12-01T01:38:41.038Z,991.38
2018-12-01T01:39:41.029Z,991.39
2018-12-01T01:40:41.025Z,991.42
2018-12-01T01:41:41.014Z,991.4
2018-12-01T01:42:41.011Z,991.44
2018-12-01T01:43:41.001Z,991.41
2018-12-01T01:44:41.005Z,991.46
2018-12-01T01:45:40.991Z,991.48
2018-12-01T01:46:40.997Z,991.47
2018-12-01T01:47:40.975Z,991.49
2018-12-01T01:48:40.967Z,991.53
2018-12-01T01:49:40.964Z,991.53
2018-12-01T01:50:40.953Z,991.58
2018-12-01T01:51:40.946Z,991.56
2018-12-01T01:52:40.941Z,991.59
2018-12-01T01:53:40.934Z,991.55
2018-12-01T01:54:40.936Z,991.59
2018-12-01T01:55:40.922Z,991.59
2018-12-01T01:56:40.914Z,991.6
2018-12-01T01:57:40.910Z,991.59
2018-12-01T01:58:40.901Z,991.59
2018-12-01T01:59:40.894Z,991.57
2018-12-01T02:00:40.889Z,991.6
2018-12-01T02:01:40.879Z,991.54
2018-12-01T02:02:40.872Z,991.5
2018-12-01T02:03:40.865Z,991.49
2018-12-01T02:04:40.862Z,991.54
2018-12-01T02:05:40.854Z,991.5
2018-12-01T02:06:40.843Z,991.53
2018-12-01T02:07:40.838Z,991.49
2018-12-01T02:08:40.847Z,991.53
2018-12-01T02:09:40.829Z,991.53
2018-12-01T02:10:40.831Z,991.51
2018-12-01T02:11:40.816Z,991.53
2018-12-01T02:12:40.802Z,991.52
2018-12-01T02:13:40.800Z,991.52
2018-12-01T02:14:40.821Z,991.48
2018-12-01T02:15:40.787Z,991.57
2018-12-01T02:16:40.777Z,991.55
2018-12-01T02:17:40.769Z,991.5
2018-12-01T02:18:40.764Z,991.56
2018-12-01T02:19:40.757Z,991.54
2018-12-01T02:20:40.750Z,991.56
2018-12-01T02:21:40.743Z,991.54
2018-12-01T02:22:40.738Z,991.53
2018-12-01T02:23:40.737Z,991.55
2018-12-01T02:24:40.723Z,991.51
2018-12-01T02:25:40.720Z,991.52
2018-12-01T02:26:40.708Z,991.52
2018-12-01T02:27:40.704Z,991.52
2018-12-01T02:28:40.697Z,991.47
2018-12-01T02:29:40.688Z,991.51
2018-12-01T02:30:40.685Z,991.49
2018-12-01T02:31:40.681Z,991.53
2018-12-01T02:32:40.692Z,991.49
2018-12-01T02:33:40.662Z,991.5
2018-12-01T02:34:40.653Z,991.54
2018-12-01T02:35:40.647Z,991.52
2018-12-01T02:36:40.642Z,991.56
2018-12-01T02:37:40.636Z,991.57
2018-12-01T02:38:40.630Z,991.53
2018-12-01T02:39:40.624Z,991.52
2018-12-01T02:40:40.614Z,991.55
2018-12-01T02:41:40.612Z,991.55
2018-12-01T02:42:40.604Z,991.56
2018-12-01T02:43:40.595Z,991.58
2018-12-01T02:44:40.586Z,991.59
2018-12-01T02:45:40.579Z,991.59
2018-12-01T02:46:40.588Z,991.56
2018-12-01T02:47:40.652Z,991.58
2018-12-01T02:48:40.571Z,991.54
2018-12-01T02:49:40.559Z,991.53
2018-12-01T02:50:40.557Z,991.51
2018-12-01T02:51:40.539Z,991.56
2018-12-01T02:52:40.533Z,991.55
2018-12-01T02:53:40.541Z,991.56
2018-12-01T02:54:40.518Z,991.54
2018-12-01T02:55:40.512Z,991.54
2018-12-01T02:56:40.507Z,991.51
2018-12-01T02:57:40.502Z,991.54
2018-12-01T02:58:40.506Z,991.5
2018-12-01T02:59:40.485Z,991.6
2018-12-01T03:00:40.480Z,991.56
2018-12-01T03:01:40.474Z,991.56
2018-12-01T03:02:40.466Z,991.55
2018-12-01T03:03:40.464Z,991.57
2018-12-01T03:04:40.460Z,991.53
2018-12-01T03:05:40.453Z,991.55
2018-12-01T03:06:40.441Z,991.55
2018-12-01T03:07:40.436Z,991.56
2018-12-01T03:08:40.428Z,991.58
2018-12-01T03:09:40.421Z,991.58
2018-12-01T03:10:40.417Z,991.6
2018-12-01T03:11:40.407Z,991.6
2018-12-01T03:12:40.403Z,991.62
2018-12-01T03:13:40.399Z,991.61
2018-12-01T03:14:40.387Z,991.62
2018-12-01T03:15:40.380Z,991.63
2018-12-01T03:16:40.373Z,991.63
2018-12-01T03:17:40.366Z,991.59
2018-12-01T03:18:40.367Z,991.57
2018-12-01T03:19:40.355Z,991.6
2018-12-01T03:20:40.352Z,991.62
2018-12-01T03:21:40.340Z,991.62
2018-12-01T03:22:40.332Z,991.63
2018-12-01T03:23:40.326Z,991.64
2018-12-01T03:24:40.320Z,991.68
2018-12-01T03:25:40.326Z,991.63
2018-12-01T03:26:40.310Z,991.67
2018-12-01T03:27:40.298Z,991.61
2018-12-01T03:28:40.291Z,991.59
2018-12-01T03:29:40.285Z,991.59
2018-12-01T03:30:40.276Z,991.61
2018-12-01T03:31:40.280Z,991.6
2018-12-01T03:32:40.265Z,991.65
2018-12-01T03:33:40.258Z,991.59
2018-12-01T03:34:40.249Z,991.59
2018-12-01T03:35:40.245Z,991.58
2018-12-01T03:36:40.235Z,991.59
2018-12-01T03:37:40.226Z,991.59
2018-12-01T03:38:40.254Z,991.57
2018-12-01T03:39:40.216Z,991.62
2018-12-01T03:40:40.209Z,991.66
2018-12-01T03:41:40.198Z,991.63
2018-12-01T03:42:40.191Z,991.66
2018-12-01T03:43:40.180Z,991.68
2018-12-01T03:44:40.171Z,991.7
2018-12-01T03:45:40.178Z,991.71
2018-12-01T03:46:40.171Z,991.67
2018-12-01T03:47:40.149Z,991.69
2018-12-01T03:48:40.144Z,991.72
2018-12-01T03:49:40.134Z,991.7
2018-12-01T03:50:40.130Z,991.7
2018-12-01T03:51:40.128Z,991.68
2018-12-01T03:52:40.116Z,991.68
2018-12-01T03:53:40.110Z,991.68
2018-12-01T03:54:40.115Z,991.63
2018-12-01T03:55:40.103Z,991.69
2018-12-01T03:56:40.086Z,991.61
2018-12-01T03:57:40.079Z,991.6
2018-12-01T03:58:40.072Z,991.64
2018-12-01T03:59:40.065Z,991.65
2018-12-01T04:00:40.058Z,991.66
2018-12-01T04:01:40.057Z,991.66
2018-12-01T04:02:40.058Z,991.6
2018-12-01T04:03:40.035Z,991.64
2018-12-01T04:04:40.040Z,991.59
2018-12-01T04:05:40.018Z,991.6
2018-12-01T04:06:40.017Z,991.56
2018-12-01T04:07:40.004Z,991.51
2018-12-01T04:08:39.998Z,991.51
2018-12-01T04:09:39.989Z,991.49
2018-12-01T04:10:39.985Z,991.46
2018-12-01T04:11:39.975Z,991.55
2018-12-01T04:12:39.971Z,991.52
2018-12-01T04:13:39.963Z,991.53
2018-12-01T04:14:39.953Z,991.55
2018-12-01T04:15:39.951Z,991.59
2018-12-01T04:16:39.942Z,991.6
2018-12-01T04:17:39.930Z,991.59
2018-12-01T04:18:39.923Z,991.61
2018-12-01T04:19:39.916Z,991.59
2018-12-01T04:20:39.907Z,991.61
2018-12-01T04:21:40.153Z,991.65
2018-12-01T04:22:39.900Z,991.63
2018-12-01T04:23:39.899Z,991.62
2018-12-01T04:24:39.877Z,991.65
2018-12-01T04:25:39.874Z,991.61
2018-12-01T04:26:39.862Z,991.57
2018-12-01T04:27:39.857Z,991.57
2018-12-01T04:28:39.848Z,991.56
2018-12-01T04:29:39.840Z,991.6
2018-12-01T04:30:39.851Z,991.63
2018-12-01T04:31:39.822Z,991.68
2018-12-01T04:32:39.819Z,991.68
2018-12-01T04:33:39.808Z,991.7
2018-12-01T04:34:39.806Z,991.71
2018-12-01T04:35:39.794Z,991.73
2018-12-01T04:36:39.790Z,991.75
2018-12-01T04:37:39.784Z,991.73
2018-12-01T04:38:39.773Z,991.76
2018-12-01T04:39:39.767Z,991.74
2018-12-01T04:40:39.761Z,991.74
2018-12-01T04:41:39.753Z,991.7
2018-12-01T04:42:39.755Z,991.68
2018-12-01T04:43:39.745Z,991.65
2018-12-01T04:44:39.734Z,991.69
2018-12-01T04:45:39.738Z,991.65
2018-12-01T04:46:39.726Z,991.66
2018-12-01T04:47:39.712Z,991.62
2018-12-01T04:48:39.711Z,991.65
2018-12-01T04:49:39.696Z,991.61
2018-12-01T04:50:39.700Z,991.61
2018-12-01T04:51:39.681Z,991.6
2018-12-01T04:52:39.674Z,991.61
2018-12-01T04:53:39.667Z,991.62
2018-12-01T04:54:39.674Z,991.57
2018-12-01T04:55:39.652Z,991.65
2018-12-01T04:56:39.648Z,991.68
2018-12-01T04:57:39.644Z,991.67
2018-12-01T04:58:39.635Z,991.74
2018-12-01T04:59:39.624Z,991.7
2018-12-01T05:00:39.617Z,991.7
2018-12-01T05:01:39.608Z,991.7
2018-12-01T05:02:39.602Z,991.7
2018-12-01T05:03:39.593Z,991.75
2018-12-01T05:04:39.584Z,991.76
2018-12-01T05:05:39.578Z,991.8
2018-12-01T05:06:39.572Z,991.81
2018-12-01T05:07:39.574Z,991.82
2018-12-01T05:08:39.554Z,991.78
2018-12-01T05:09:39.548Z,991.75
2018-12-01T05:10:39.561Z,991.78
2018-12-01T05:11:39.534Z,991.76
2018-12-01T05:12:39.530Z,991.76
2018-12-01T05:13:39.522Z,991.76
2018-12-01T05:14:39.528Z,991.76
2018-12-01T05:15:39.507Z,991.76
2018-12-01T05:16:39.499Z,991.76
2018-12-01T05:17:39.491Z,991.75
2018-12-01T05:18:39.483Z,991.78
2018-12-01T05:19:39.476Z,991.8
2018-12-01T05:20:39.469Z,991.84
2018-12-01T05:21:39.470Z,991.85
2018-12-01T05:22:39.511Z,991.86
2018-12-01T05:23:39.446Z,991.9
2018-12-01T05:24:39.440Z,991.89
2018-12-01T05:25:39.432Z,991.91
2018-12-01T05:26:39.436Z,991.89
2018-12-01T05:27:39.420Z,991.86
2018-12-01T05:28:39.419Z,991.88
2018-12-01T05:29:39.422Z,991.9
2018-12-01T05:30:39.398Z,991.89
2018-12-01T05:31:39.392Z,991.86
2018-12-01T05:32:39.384Z,991.86
2018-12-01T05:33:39.373Z,991.89
2018-12-01T05:34:39.372Z,991.83
2018-12-01T05:35:39.365Z,991.89
2018-12-01T05:36:39.351Z,991.9
2018-12-01T05:37:39.345Z,991.9
2018-12-01T05:38:39.339Z,991.86
2018-12-01T05:39:39.332Z,991.89
2018-12-01T05:40:39.321Z,991.9
2018-12-01T05:41:39.316Z,991.9
2018-12-01T05:42:39.309Z,991.93
2018-12-01T05:43:39.302Z,991.93
2018-12-01T05:44:39.294Z,991.92
2018-12-01T05:45:39.288Z,991.95
2018-12-01T05:46:39.280Z,991.94
2018-12-01T05:47:39.276Z,991.91
2018-12-01T05:48:39.264Z,991.96
2018-12-01T05:49:39.259Z,991.91
2018-12-01T05:50:39.275Z,991.95
2018-12-01T05:51:39.255Z,991.97
2018-12-01T05:52:39.246Z,991.98
2018-12-01T05:53:39.254Z,991.97
2018-12-01T05:54:39.221Z,991.98
2018-12-01T05:55:39.212Z,991.98
2018-12-01T05:56:39.217Z,992.02
2018-12-01T05:57:39.197Z,992.01
2018-12-01T05:58:39.187Z,992.02
2018-12-01T05:59:39.186Z,992
2018-12-01T06:00:39.213Z,991.98
2018-12-01T06:01:39.164Z,992.04
2018-12-01T06:02:39.162Z,992.03
2018-12-01T06:03:39.147Z,992.06
2018-12-01T06:04:39.156Z,992.04
2018-12-01T06:05:39.134Z,992.06
2018-12-01T06:06:39.124Z,992.05
2018-12-01T06:07:39.117Z,992.06
2018-12-01T06:08:39.110Z,992.03
2018-12-01T06:09:39.102Z,992.04
2018-12-01T06:10:39.091Z,992.05
2018-12-01T06:11:39.085Z,992.01
2018-12-01T06:12:39.080Z,991.98
2018-12-01T06:13:39.065Z,991.98
2018-12-01T06:14:39.066Z,991.98
2018-12-01T06:15:39.051Z,991.98
2018-12-01T06:16:39.046Z,992.02
2018-12-01T06:17:39.046Z,992.06
2018-12-01T06:18:39.068Z,992.07
2018-12-01T06:19:39.038Z,992.11
2018-12-01T06:20:39.032Z,992.13
2018-12-01T06:21:39.002Z,992.12
2018-12-01T06:22:38.995Z,992.11
2018-12-01T06:23:38.985Z,992.14
2018-12-01T06:24:38.978Z,992.19
2018-12-01T06:25:38.976Z,992.28
2018-12-01T06:26:38.969Z,992.28
2018-12-01T06:27:38.952Z,992.24
2018-12-01T06:28:38.951Z,992.28
2018-12-01T06:29:38.938Z,992.28
2018-12-01T06:30:38.929Z,992.26
2018-12-01T06:31:38.921Z,992.24
2018-12-01T06:32:38.919Z,992.27
2018-12-01T06:33:38.905Z,992.36
2018-12-01T06:34:38.894Z,992.36
2018-12-01T06:35:38.887Z,992.34
2018-12-01T06:36:38.877Z,992.4
2018-12-01T06:37:38.869Z,992.35
2018-12-01T06:38:38.862Z,992.42
2018-12-01T06:39:38.866Z,992.42
2018-12-01T06:40:38.851Z,992.43
2018-12-01T06:41:38.836Z,992.47
2018-12-01T06:42:38.832Z,992.45
2018-12-01T06:43:38.816Z,992.44
2018-12-01T06:44:38.809Z,992.49
2018-12-01T06:45:38.803Z,992.48
2018-12-01T06:46:38.793Z,992.54
2018-12-01T06:47:38.790Z,992.58
2018-12-01T06:48:38.777Z,992.61
2018-12-01T06:49:38.767Z,992.58
2018-12-01T06:50:38.768Z,992.6
2018-12-01T06:51:38.751Z,992.57
2018-12-01T06:52:38.741Z,992.58
2018-12-01T06:53:38.743Z,992.53
2018-12-01T06:54:38.722Z,992.6
2018-12-01T06:55:38.719Z,992.56
2018-12-01T06:56:38.710Z,992.56
2018-12-01T06:57:38.703Z,992.53
2018-12-01T06:58:38.688Z,992.55
2018-12-01T06:59:38.684Z,992.55
2018-12-01T07:00:38.671Z,992.53
2018-12-01T07:01:38.663Z,992.54
2018-12-01T07:02:38.655Z,992.52
2018-12-01T07:03:38.643Z,992.54
2018-12-01T07:04:38.635Z,992.57
2018-12-01T07:05:38.630Z,992.59
2018-12-01T07:06:38.622Z,992.55
2018-12-01T07:07:38.610Z,992.58
2018-12-01T07:08:38.603Z,992.69
2018-12-01T07:09:38.595Z,992.7
2018-12-01T07:10:38.590Z,992.73
2018-12-01T07:11:38.578Z,992.76
2018-12-01T07:12:38.573Z,992.74
2018-12-01T07:13:38.559Z,992.76
2018-12-01T07:14:38.550Z,992.73
2018-12-01T07:15:38.543Z,992.76
2018-12-01T07:16:38.540Z,992.73
2018-12-01T07:17:38.532Z,992.75
2018-12-01T07:18:38.517Z,992.73
2018-12-01T07:19:38.512Z,992.69
2018-12-01T07:20:38.501Z,992.66
2018-12-01T07:21:38.492Z,992.69
2018-12-01T07:22:38.488Z,992.62
2018-12-01T07:23:38.477Z,992.6
2018-12-01T07:24:38.486Z,992.56
2018-12-01T07:25:38.477Z,992.56
2018-12-01T07:26:38.452Z,992.51
2018-12-01T07:27:38.490Z,992.56
2018-12-01T07:28:38.434Z,992.6
2018-12-01T07:29:38.429Z,992.58
2018-12-01T07:30:38.415Z,992.54
2018-12-01T07:31:38.410Z,992.62
2018-12-01T07:32:38.404Z,992.63
2018-12-01T07:33:38.393Z,992.65
2018-12-01T07:34:38.389Z,992.67
2018-12-01T07:35:38.377Z,992.67
2018-12-01T07:36:38.385Z,992.65
2018-12-01T07:37:38.361Z,992.62
2018-12-01T07:38:38.369Z,992.55
2018-12-01T07:39:38.357Z,992.55
2018-12-01T07:40:38.339Z,992.53
2018-12-01T07:41:38.328Z,992.57
2018-12-01T07:42:38.320Z,992.57
2018-12-01T07:43:38.310Z,992.56
2018-12-01T07:44:38.306Z,992.54
2018-12-01T07:45:38.301Z,992.6
2018-12-01T07:46:38.297Z,992.61
2018-12-01T07:47:38.284Z,992.59
2018-12-01T07:48:38.275Z,992.59
2018-12-01T07:49:38.266Z,992.65
2018-12-01T07:50:38.260Z,992.64
2018-12-01T07:51:38.247Z,992.64
2018-12-01T07:52:38.242Z,992.63
2018-12-01T07:53:38.231Z,992.65
2018-12-01T07:54:38.225Z,992.68
2018-12-01T07:55:38.219Z,992.67
2018-12-01T07:56:38.210Z,992.69
2018-12-01T07:57:38.201Z,992.67
2018-12-01T07:58:38.198Z,992.67
2018-12-01T07:59:38.187Z,992.66
2018-12-01T08:00:38.179Z,992.67
2018-12-01T08:01:38.176Z,992.67
2018-12-01T08:02:38.167Z,992.68
2018-12-01T08:03:38.160Z,992.71
2018-12-01T08:04:38.148Z,992.72
2018-12-01T08:05:38.141Z,992.75
2018-12-01T08:06:38.136Z,992.81
2018-12-01T08:07:38.125Z,992.75
2018-12-01T08:08:38.121Z,992.72
2018-12-01T08:09:38.111Z,992.72
2018-12-01T08:10:38.101Z,992.74
2018-12-01T08:11:38.113Z,992.69
2018-12-01T08:12:38.091Z,992.71
2018-12-01T08:13:38.087Z,992.67
2018-12-01T08:14:38.079Z,992.62
2018-12-01T08:15:38.069Z,992.63
2018-12-01T08:16:38.062Z,992.66
2018-12-01T08:17:38.064Z,992.7
2018-12-01T08:18:38.042Z,992.68
2018-12-01T08:19:38.042Z,992.74
2018-12-01T08:20:38.030Z,992.67
2018-12-01T08:21:38.022Z,992.72
2018-12-01T08:22:38.026Z,992.66
2018-12-01T08:23:38.271Z,992.64
2018-12-01T08:24:38.008Z,992.68
2018-12-01T08:25:38.007Z,992.71
2018-12-01T08:26:37.989Z,992.69
2018-12-01T08:27:37.986Z,992.72
2018-12-01T08:28:37.972Z,992.71
2018-12-01T08:29:37.966Z,992.71
2018-12-01T08:30:37.959Z,992.72
2018-12-01T08:31:37.961Z,992.69
2018-12-01T08:32:37.945Z,992.7
2018-12-01T08:33:37.938Z,992.72
2018-12-01T08:34:37.933Z,992.68
2018-12-01T08:35:37.929Z,992.68
2018-12-01T08:36:37.942Z,992.67
2018-12-01T08:37:37.912Z,992.72
2018-12-01T08:38:37.907Z,992.7
2018-12-01T08:39:37.896Z,992.73
2018-12-01T08:40:37.889Z,992.74
2018-12-01T08:41:37.888Z,992.73
2018-12-01T08:42:37.877Z,992.67
2018-12-01T08:43:37.871Z,992.68
2018-12-01T08:44:37.863Z,992.71
2018-12-01T08:45:37.857Z,992.65
2018-12-01T08:46:37.862Z,992.65
2018-12-01T08:47:37.859Z,992.62
2018-12-01T08:48:37.838Z,992.6
2018-12-01T08:49:37.830Z,992.54
2018-12-01T08:50:37.825Z,992.55
2018-12-01T08:51:37.817Z,992.57
2018-12-01T08:52:37.809Z,992.6
2018-12-01T08:53:37.805Z,992.55
2018-12-01T08:54:37.801Z,992.49
2018-12-01T08:55:37.794Z,992.49
2018-12-01T08:56:37.804Z,992.49
2018-12-01T08:57:37.781Z,992.49
2018-12-01T08:58:37.782Z,992.43
2018-12-01T08:59:37.771Z,992.39
2018-12-01T09:00:37.766Z,992.41
2018-12-01T09:01:37.766Z,992.41
2018-12-01T09:02:37.765Z,992.41
2018-12-01T09:03:37.743Z,992.46
2018-12-01T09:04:37.740Z,992.38
2018-12-01T09:05:37.734Z,992.41
2018-12-01T09:06:37.728Z,992.38
2018-12-01T09:07:37.721Z,992.42
2018-12-01T09:08:37.733Z,992.39
2018-12-01T09:09:37.712Z,992.41
2018-12-01T09:10:37.720Z,992.3
2018-12-01T09:11:37.711Z,992.33
2018-12-01T09:12:37.693Z,992.41
2018-12-01T09:13:37.687Z,992.42
2018-12-01T09:14:37.683Z,992.48
2018-12-01T09:15:37.682Z,992.48
2018-12-01T09:16:37.668Z,992.54
2018-12-01T09:17:37.663Z,992.53
2018-12-01T09:18:37.668Z,992.57
2018-12-01T09:19:37.651Z,992.62
2018-12-01T09:20:37.664Z,992.66
2018-12-01T09:21:37.643Z,992.61
2018-12-01T09:22:37.642Z,992.67
2018-12-01T09:23:37.633Z,992.64
2018-12-01T09:24:37.626Z,992.54
2018-12-01T09:25:37.618Z,992.58
2018-12-01T09:26:37.613Z,992.54
2018-12-01T09:27:37.608Z,992.51
2018-12-01T09:28:37.612Z,992.48
2018-12-01T09:29:37.605Z,992.53
2018-12-01T09:30:37.593Z,992.48
2018-12-01T09:31:37.587Z,992.49
2018-12-01T09:32:37.588Z,992.49
2018-12-01T09:33:37.578Z,992.49
2018-12-01T09:34:37.570Z,992.51
2018-12-01T09:35:37.671Z,992.46
2018-12-01T09:36:37.563Z,992.43
2018-12-01T09:37:37.556Z,992.45
2018-12-01T09:38:37.552Z,992.44
2018-12-01T09:39:37.546Z,992.42
2018-12-01T09:40:37.543Z,992.42
2018-12-01T09:41:37.539Z,992.42
2018-12-01T09:42:37.533Z,992.41
2018-12-01T09:43:37.529Z,992.47
2018-12-01T09:44:37.523Z,992.47
2018-12-01T09:45:37.516Z,992.45
2018-12-01T09:46:37.512Z,992.43
2018-12-01T09:47:37.523Z,992.39
2018-12-01T09:48:37.501Z,992.44
2018-12-01T09:49:37.505Z,992.42
2018-12-01T09:50:37.507Z,992.44
2018-12-01T09:51:37.488Z,992.4
2018-12-01T09:52:37.484Z,992.45
2018-12-01T09:53:37.478Z,992.41
2018-12-01T09:54:37.478Z,992.42
2018-12-01T09:55:37.467Z,992.41
2018-12-01T09:56:37.461Z,992.4
2018-12-01T09:57:37.458Z,992.4
2018-12-01T09:58:37.453Z,992.39
2018-12-01T09:59:37.447Z,992.38
2018-12-01T10:00:37.458Z,992.36
2018-12-01T10:01:37.439Z,992.37
2018-12-01T10:02:37.433Z,992.38
2018-12-01T10:03:37.428Z,992.41
2018-12-01T10:04:37.423Z,992.41
2018-12-01T10:05:37.424Z,992.4
2018-12-01T10:06:37.421Z,992.4
2018-12-01T10:07:37.414Z,992.34
2018-12-01T10:08:37.406Z,992.32
2018-12-01T10:09:37.399Z,992.29
2018-12-01T10:10:37.396Z,992.33
2018-12-01T10:11:37.394Z,992.32
2018-12-01T10:12:37.385Z,992.31
2018-12-01T10:13:37.382Z,992.31
2018-12-01T10:14:37.381Z,992.25
2018-12-01T10:15:37.387Z,992.29
2018-12-01T10:16:37.382Z,992.31
2018-12-01T10:17:37.362Z,992.26
2018-12-01T10:18:37.354Z,992.25
2018-12-01T10:19:37.351Z,992.23
2018-12-01T10:20:38.637Z,992.26
2018-12-01T10:21:37.343Z,992.27
2018-12-01T10:22:37.338Z,992.21
2018-12-01T10:23:37.334Z,992.21
2018-12-01T10:24:37.330Z,992.21
2018-12-01T10:25:37.326Z,992.2
2018-12-01T10:26:37.333Z,992.18
2018-12-01T10:27:37.329Z,992.16
2018-12-01T10:28:37.311Z,992.12
2018-12-01T10:29:37.304Z,992.12
2018-12-01T10:30:37.304Z,992.11
2018-12-01T10:31:37.298Z,992.09
2018-12-01T10:32:37.289Z,992.1
2018-12-01T10:33:37.287Z,992.06
2018-12-01T10:34:37.310Z,992.08
2018-12-01T10:35:37.277Z,992.05
2018-12-01T10:36:37.303Z,992.07
2018-12-01T10:37:37.280Z,992.01
2018-12-01T10:38:37.265Z,991.94
2018-12-01T10:39:37.262Z,991.97
2018-12-01T10:40:37.256Z,991.94
2018-12-01T10:41:37.257Z,991.87
2018-12-01T10:42:37.246Z,991.87
2018-12-01T10:43:37.246Z,991.87
2018-12-01T10:44:37.240Z,991.86
2018-12-01T10:45:37.237Z,991.82
2018-12-01T10:46:37.244Z,991.77
2018-12-01T10:47:37.233Z,991.8
2018-12-01T10:48:37.255Z,991.74
2018-12-01T10:49:37.229Z,991.77
2018-12-01T10:50:37.240Z,991.77
2018-12-01T10:51:37.215Z,991.73
2018-12-01T10:52:37.212Z,991.75
2018-12-01T10:53:37.202Z,991.76
2018-12-01T10:54:37.497Z,991.77
2018-12-01T10:55:37.193Z,991.83
2018-12-01T10:56:37.198Z,991.8
2018-12-01T10:57:37.186Z,991.86
2018-12-01T10:58:37.186Z,991.86
2018-12-01T10:59:37.183Z,991.83
2018-12-01T11:00:37.174Z,991.87
2018-12-01T11:01:37.180Z,991.89
2018-12-01T11:02:37.168Z,991.92
2018-12-01T11:03:37.181Z,991.95
2018-12-01T11:04:37.167Z,991.98
2018-12-01T11:05:37.166Z,991.99
2018-12-01T11:06:37.158Z,991.99
2018-12-01T11:07:37.151Z,992
2018-12-01T11:08:37.143Z,991.9
2018-12-01T11:09:37.139Z,991.84
2018-12-01T11:10:37.136Z,991.81
2018-12-01T11:11:37.135Z,991.84
2018-12-01T11:12:37.129Z,991.86
2018-12-01T11:13:37.125Z,991.81
2018-12-01T11:14:37.919Z,991.79
2018-12-01T11:15:37.114Z,991.74
2018-12-01T11:16:37.129Z,991.74
2018-12-01T11:17:37.109Z,991.69
2018-12-01T11:18:37.103Z,991.69
2018-12-01T11:19:37.098Z,991.68
2018-12-01T11:20:37.095Z,991.72
2018-12-01T11:21:37.092Z,991.71
2018-12-01T11:22:37.086Z,991.69
2018-12-01T11:23:37.084Z,991.73
2018-12-01T11:24:37.082Z,991.73
2018-12-01T11:25:37.077Z,991.67
2018-12-01T11:26:37.073Z,991.65
2018-12-01T11:27:37.071Z,991.67
2018-12-01T11:28:37.064Z,991.66
2018-12-01T11:29:37.102Z,991.65
2018-12-01T11:30:37.167Z,991.58
2018-12-01T11:31:37.057Z,991.56
2018-12-01T11:32:37.154Z,991.59
2018-12-01T11:33:37.055Z,991.53
2018-12-01T11:34:37.085Z,991.52
2018-12-01T11:35:37.041Z,991.48
2018-12-01T11:36:37.037Z,991.48
2018-12-01T11:37:37.035Z,991.35
2018-12-01T11:38:37.030Z,991.37
2018-12-01T11:39:37.027Z,991.38
2018-12-01T11:40:37.034Z,991.44
2018-12-01T11:41:37.129Z,991.41
2018-12-01T11:42:37.173Z,991.45
2018-12-01T11:43:37.094Z,991.46
2018-12-01T11:44:37.041Z,991.37
2018-12-01T11:45:37.039Z,991.4
2018-12-01T11:46:37.005Z,991.33
2018-12-01T11:47:37.140Z,991.3
2018-12-01T11:48:36.995Z,991.28
2018-12-01T11:49:37.011Z,991.26
2018-12-01T11:50:36.985Z,991.27
2018-12-01T11:51:37.029Z,991.24
2018-12-01T11:52:37.028Z,991.19
2018-12-01T11:53:37.024Z,991.17
2018-12-01T11:54:36.983Z,991.17
2018-12-01T11:55:37.044Z,991.21
2018-12-01T11:56:36.964Z,991.23
2018-12-01T11:57:36.960Z,991.2
2018-12-01T11:58:36.960Z,991.18
2018-12-01T11:59:36.977Z,991.2
2018-12-01T12:00:36.948Z,991.21
2018-12-01T12:01:37.041Z,991.17
2018-12-01T12:02:36.972Z,991.16
2018-12-01T12:03:37.000Z,991.11
2018-12-01T12:04:36.934Z,991.07
2018-12-01T12:05:36.927Z,991.14
2018-12-01T12:06:36.927Z,991.15
2018-12-01T12:07:36.970Z,991.16
2018-12-01T12:08:36.916Z,991.11
2018-12-01T12:09:36.912Z,991.15
2018-12-01T12:10:36.908Z,991.16
2018-12-01T12:11:36.903Z,991.17
2018-12-01T12:12:36.905Z,991.19
2018-12-01T12:13:36.923Z,991.19
2018-12-01T12:14:36.968Z,991.2
2018-12-01T12:15:36.888Z,991.18
2018-12-01T12:16:36.887Z,991.16
2018-12-01T12:17:36.882Z,991.21
2018-12-01T12:18:36.880Z,991.12
2018-12-01T12:19:36.914Z,991.13
2018-12-01T12:20:36.886Z,991.11
2018-12-01T12:21:36.869Z,991.12
2018-12-01T12:22:36.870Z,991.1
2018-12-01T12:23:36.866Z,991.08
2018-12-01T12:24:36.864Z,991.1
2018-12-01T12:25:36.865Z,991.13
2018-12-01T12:26:36.851Z,991.06
2018-12-01T12:27:36.850Z,991.1
2018-12-01T12:28:36.866Z,991.1
2018-12-01T12:29:36.963Z,991.08
2018-12-01T12:30:36.834Z,991.05
2018-12-01T12:31:36.864Z,991.03